createdAt,value
2023-03-21T00:01:41.238Z,12.77
2023-03-21T00:04:07.682Z,12.40
2023-03-21T00:06:34.084Z,12.32
2023-03-21T00:09:00.517Z,11.77
2023-03-21T00:11:26.957Z,12.70
2023-03-21T00:13:53.341Z,11.65
2023-03-21T00:16:27.015Z,11.88
2023-03-21T00:18:58.443Z,11.63
2023-03-21T00:21:52.253Z,11.40
2023-03-21T00:24:11.574Z,10.80
2023-03-21T00:26:38.313Z,11.43
2023-03-21T00:29:04.757Z,11.18
2023-03-21T00:31:31.200Z,11.27
2023-03-21T00:33:57.547Z,11.80
2023-03-21T00:36:23.993Z,11.98
2023-03-21T00:38:50.345Z,11.13
2023-03-21T00:41:26.360Z,11.48
2023-03-21T00:44:03.088Z,12.93
2023-03-21T00:46:39.882Z,13.27
2023-03-21T00:49:08.766Z,11.90
2023-03-21T00:51:35.168Z,11.40
2023-03-21T00:54:01.513Z,12.23
2023-03-21T00:56:28.025Z,13.05
2023-03-21T00:58:54.506Z,12.43
2023-03-21T01:01:20.873Z,11.60
2023-03-21T01:03:47.309Z,12.57
2023-03-21T01:06:13.844Z,11.98
2023-03-21T01:08:58.097Z,12.52
2023-03-21T01:13:59.854Z,12.25
2023-03-21T01:16:34.494Z,11.25
2023-03-21T01:19:03.399Z,10.95
2023-03-21T01:21:31.958Z,12.65
2023-03-21T01:23:58.567Z,11.95
2023-03-21T01:26:24.949Z,12.68
2023-03-21T01:28:51.271Z,11.55
2023-03-21T01:31:17.950Z,12.57
2023-03-21T01:33:45.113Z,11.10
2023-03-21T01:36:24.486Z,10.63
2023-03-21T01:38:52.372Z,10.60
2023-03-21T01:41:43.113Z,11.52
2023-03-21T01:44:16.140Z,9.82
2023-03-21T01:49:35.793Z,10.43
2023-03-21T01:52:13.119Z,10.40
2023-03-21T01:54:43.147Z,11.30
2023-03-21T01:57:16.741Z,9.98
2023-03-21T01:59:46.497Z,11.63
2023-03-21T02:02:19.327Z,12.02
2023-03-21T02:04:45.684Z,12.32
2023-03-21T02:07:18.987Z,11.50
2023-03-21T02:09:48.727Z,11.02
2023-03-21T02:12:15.147Z,12.00
2023-03-21T02:14:42.621Z,11.80
2023-03-21T02:17:19.196Z,12.38
2023-03-21T02:20:06.469Z,12.18
2023-03-21T02:22:32.793Z,12.18
2023-03-21T02:25:28.392Z,13.35
2023-03-21T02:28:19.049Z,11.75
2023-03-21T02:31:16.470Z,12.80
2023-03-21T02:34:21.867Z,11.70
2023-03-21T02:37:03.216Z,12.48
2023-03-21T02:39:55.534Z,12.50
2023-03-21T02:42:34.964Z,14.05
2023-03-21T02:45:20.210Z,13.57
2023-03-21T02:47:51.702Z,13.52
2023-03-21T02:50:26.520Z,13.82
2023-03-21T02:52:54.737Z,14.20
2023-03-21T02:55:28.076Z,12.57
2023-03-21T02:57:57.094Z,13.98
2023-03-21T03:00:27.016Z,12.23
2023-03-21T03:03:06.350Z,14.05
2023-03-21T03:05:41.085Z,14.63
2023-03-21T03:09:04.917Z,13.75
2023-03-21T03:11:37.773Z,14.40
2023-03-21T03:15:01.819Z,13.13
2023-03-21T03:17:58.564Z,12.73
2023-03-21T03:20:53.370Z,13.43
2023-03-21T03:23:23.791Z,14.43
2023-03-21T03:25:52.412Z,13.63
2023-03-21T03:28:27.063Z,13.98
2023-03-21T03:31:08.230Z,13.88
2023-03-21T03:33:39.840Z,13.48
2023-03-21T03:36:14.815Z,13.80
2023-03-21T03:38:48.236Z,13.05
2023-03-21T03:41:22.439Z,12.68
2023-03-21T03:43:56.198Z,13.10
2023-03-21T03:47:04.061Z,14.52
2023-03-21T03:49:43.203Z,13.50
2023-03-21T03:52:12.187Z,13.82
2023-03-21T03:54:42.512Z,13.73
2023-03-21T03:57:09.608Z,13.18
2023-03-21T03:59:37.420Z,12.15
2023-03-21T04:02:04.762Z,13.18
2023-03-21T04:04:31.342Z,13.88
2023-03-21T04:06:58.689Z,12.95
2023-03-21T04:09:40.892Z,12.27
2023-03-21T04:14:44.127Z,12.07
2023-03-21T04:17:11.280Z,12.68
2023-03-21T04:19:37.777Z,12.23
2023-03-21T04:22:04.165Z,12.52
2023-03-21T04:24:30.562Z,12.18
2023-03-21T04:26:56.927Z,11.52
2023-03-21T04:29:23.258Z,11.77
2023-03-21T04:31:49.626Z,11.00
2023-03-21T04:34:16.082Z,11.50
2023-03-21T04:36:42.635Z,10.88
2023-03-21T04:39:09.526Z,11.52
2023-03-21T04:41:36.007Z,10.95
2023-03-21T04:44:02.608Z,10.35
2023-03-21T04:46:28.962Z,10.73
2023-03-21T04:48:55.341Z,10.52
2023-03-21T04:51:21.645Z,11.60
2023-03-21T04:56:14.326Z,11.05
2023-03-21T04:58:41.643Z,10.82
2023-03-21T05:01:08.707Z,10.60
2023-03-21T05:03:35.881Z,9.70
2023-03-21T05:06:02.243Z,10.05
2023-03-21T05:08:28.598Z,10.93
2023-03-21T05:10:55.029Z,12.00
2023-03-21T05:13:21.434Z,11.52
2023-03-21T05:15:47.786Z,11.50
2023-03-21T05:18:14.119Z,11.68
2023-03-21T05:20:41.761Z,11.63
2023-03-21T05:23:11.885Z,12.52
2023-03-21T05:25:39.832Z,12.55
2023-03-21T05:28:07.504Z,13.40
2023-03-21T05:30:33.943Z,13.70
2023-03-21T05:33:00.628Z,11.30
2023-03-21T05:35:27.565Z,13.68
2023-03-21T05:37:53.984Z,12.77
2023-03-21T05:40:20.772Z,12.65
2023-03-21T05:42:48.013Z,13.38
2023-03-21T05:45:15.807Z,12.60
2023-03-21T05:47:42.208Z,13.18
2023-03-21T05:50:10.430Z,11.98
2023-03-21T05:52:37.088Z,11.48
2023-03-21T05:55:04.033Z,10.10
2023-03-21T05:57:30.382Z,10.75
2023-03-21T05:59:56.732Z,11.02
2023-03-21T06:02:23.115Z,10.65
2023-03-21T06:04:49.617Z,10.15
2023-03-21T06:07:15.969Z,12.00
2023-03-21T06:09:42.330Z,10.77
2023-03-21T06:12:08.682Z,10.75
2023-03-21T06:14:35.043Z,10.52
2023-03-21T06:17:01.388Z,10.82
2023-03-21T06:19:27.752Z,10.60
2023-03-21T06:21:54.128Z,10.80
2023-03-21T06:24:21.154Z,10.13
2023-03-21T06:26:47.509Z,10.55
2023-03-21T06:29:13.880Z,10.65
2023-03-21T06:31:40.521Z,10.25
2023-03-21T06:34:06.961Z,9.82
2023-03-21T06:36:33.414Z,10.40
2023-03-21T06:38:59.748Z,8.25
2023-03-21T06:41:26.187Z,9.75
2023-03-21T06:43:52.534Z,9.23
2023-03-21T06:50:17.625Z,10.50
2023-03-21T06:52:44.362Z,9.70
2023-03-21T06:55:10.800Z,9.35
2023-03-21T06:57:38.035Z,9.98
2023-03-21T07:00:05.089Z,9.43
2023-03-21T07:02:31.593Z,9.50
2023-03-21T07:04:57.966Z,9.70
2023-03-21T07:07:26.062Z,9.65
2023-03-21T07:09:52.460Z,9.27
2023-03-21T07:12:18.830Z,9.95
2023-03-21T07:14:45.211Z,10.15
2023-03-21T07:17:11.535Z,9.15
2023-03-21T07:19:38.039Z,9.00
2023-03-21T07:22:04.402Z,8.88
2023-03-21T07:24:30.743Z,9.00
2023-03-21T07:26:57.152Z,9.50
2023-03-21T07:29:23.517Z,9.10
2023-03-21T07:31:50.063Z,8.45
2023-03-21T07:34:16.602Z,9.50
2023-03-21T07:36:43.292Z,9.20
2023-03-21T07:39:09.632Z,9.32
2023-03-21T07:41:35.997Z,8.80
2023-03-21T07:44:02.509Z,9.77
2023-03-21T07:46:29.084Z,8.95
2023-03-21T07:48:55.455Z,10.40
2023-03-21T07:51:21.778Z,9.73
2023-03-21T07:53:48.124Z,8.88
2023-03-21T07:56:14.656Z,9.65
2023-03-21T07:58:41.018Z,9.32
2023-03-21T08:01:07.413Z,9.50
2023-03-21T08:03:33.846Z,9.20
2023-03-21T08:06:00.597Z,9.32
2023-03-21T08:08:27.098Z,9.70
2023-03-21T08:10:53.425Z,8.82
2023-03-21T08:13:19.843Z,8.73
2023-03-21T08:15:46.555Z,8.60
2023-03-21T08:18:12.959Z,8.65
2023-03-21T08:20:39.509Z,7.78
2023-03-21T08:23:05.886Z,8.60
2023-03-21T08:25:32.260Z,7.68
2023-03-21T08:27:58.696Z,8.23
2023-03-21T08:30:27.998Z,7.78
2023-03-21T08:33:01.160Z,6.45
2023-03-21T08:35:29.042Z,7.97
2023-03-21T08:37:55.410Z,6.43
2023-03-21T08:40:21.870Z,7.43
2023-03-21T08:42:48.603Z,6.65
2023-03-21T08:45:17.239Z,7.25
2023-03-21T08:47:44.195Z,7.20
2023-03-21T08:50:13.639Z,7.22
2023-03-21T08:52:40.041Z,5.95
2023-03-21T08:55:06.911Z,6.68
2023-03-21T08:57:33.313Z,7.60
2023-03-21T08:59:59.632Z,6.68
2023-03-21T09:02:26.104Z,6.70
2023-03-21T09:04:52.629Z,7.03
2023-03-21T09:07:19.018Z,7.32
2023-03-21T09:09:47.790Z,6.80
2023-03-21T09:12:17.259Z,6.32
2023-03-21T09:14:43.616Z,6.78
2023-03-21T09:17:10.014Z,6.50
2023-03-21T09:19:36.368Z,6.00
2023-03-21T09:22:02.683Z,6.40
2023-03-21T09:24:29.083Z,6.40
2023-03-21T09:26:55.475Z,6.53
2023-03-21T09:29:21.837Z,7.43
2023-03-21T09:31:48.431Z,6.10
2023-03-21T09:34:15.024Z,6.95
2023-03-21T09:36:42.961Z,6.15
2023-03-21T09:39:09.825Z,6.40
2023-03-21T09:41:48.122Z,6.13
2023-03-21T09:44:32.855Z,7.45
2023-03-21T09:47:21.696Z,6.57
2023-03-21T09:50:01.675Z,6.22
2023-03-21T09:52:42.476Z,5.50
2023-03-21T09:55:27.157Z,5.38
2023-03-21T09:58:24.731Z,5.45
2023-03-21T10:00:54.210Z,5.88
2023-03-21T10:03:24.509Z,6.03
2023-03-21T10:05:52.644Z,5.70
2023-03-21T10:08:22.967Z,5.68
2023-03-21T10:10:53.571Z,6.03
2023-03-21T10:13:24.940Z,5.78
2023-03-21T10:15:56.753Z,6.13
2023-03-21T10:18:26.396Z,5.50
2023-03-21T10:20:53.227Z,5.55
2023-03-21T10:23:22.539Z,5.78
2023-03-21T10:25:53.073Z,6.07
2023-03-21T10:28:24.606Z,6.00
2023-03-21T10:30:54.079Z,5.68
2023-03-21T10:33:26.585Z,5.60
2023-03-21T10:35:59.818Z,6.05
2023-03-21T10:38:26.836Z,5.53
2023-03-21T10:40:53.767Z,5.70
2023-03-21T10:43:30.772Z,5.60
2023-03-21T10:45:57.978Z,5.43
2023-03-21T10:48:25.113Z,5.78
2023-03-21T10:50:54.430Z,6.00
2023-03-21T10:53:27.280Z,5.85
2023-03-21T10:55:57.493Z,5.95
2023-03-21T10:58:30.549Z,5.15
2023-03-21T11:01:00.562Z,5.75
2023-03-21T11:03:30.944Z,5.60
2023-03-21T11:06:03.765Z,5.68
2023-03-21T11:08:30.506Z,5.43
2023-03-21T11:11:05.773Z,4.97
2023-03-21T11:13:41.235Z,5.78
2023-03-21T11:16:22.677Z,5.90
2023-03-21T11:18:51.435Z,5.72
2023-03-21T11:21:17.881Z,5.70
2023-03-21T11:23:47.272Z,5.25
2023-03-21T11:26:25.683Z,5.03
2023-03-21T11:28:53.646Z,5.72
2023-03-21T11:31:20.938Z,3.95
2023-03-21T11:33:57.246Z,4.57
2023-03-21T11:36:23.628Z,4.93
2023-03-21T11:38:52.932Z,4.30
2023-03-21T11:41:30.861Z,4.82
2023-03-21T11:43:58.581Z,5.53
2023-03-21T11:46:27.599Z,4.60
2023-03-21T11:48:55.640Z,4.72
2023-03-21T11:51:34.734Z,4.90
2023-03-21T11:54:33.677Z,4.93
2023-03-21T11:57:11.302Z,4.40
2023-03-21T11:59:48.100Z,4.72
2023-03-21T12:02:46.145Z,4.78
2023-03-21T12:05:19.386Z,4.60
2023-03-21T12:08:00.939Z,4.82
2023-03-21T12:10:32.444Z,4.93
2023-03-21T12:13:25.951Z,4.78
2023-03-21T12:16:04.392Z,5.13
2023-03-21T12:18:57.870Z,4.68
2023-03-21T12:21:27.265Z,4.20
2023-03-21T12:24:11.835Z,4.20
2023-03-21T12:26:53.375Z,4.40
2023-03-21T12:29:27.006Z,4.70
2023-03-21T12:32:05.143Z,5.05
2023-03-21T12:37:25.035Z,4.55
2023-03-21T12:39:59.583Z,5.15
2023-03-21T12:43:01.067Z,4.85
2023-03-21T12:45:45.612Z,4.07
2023-03-21T12:48:38.238Z,3.95
2023-03-21T12:51:11.037Z,5.40
2023-03-21T12:53:56.094Z,4.65
2023-03-21T12:56:28.819Z,4.65
2023-03-21T12:59:06.109Z,4.30
2023-03-21T13:01:35.455Z,4.43
2023-03-21T13:04:21.416Z,4.68
2023-03-21T13:06:50.797Z,4.28
2023-03-21T13:09:37.308Z,4.57
2023-03-21T13:12:19.360Z,4.35
2023-03-21T13:14:59.561Z,4.55
2023-03-21T13:17:34.725Z,4.28
2023-03-21T13:20:26.703Z,4.53
2023-03-21T13:22:53.237Z,5.00
2023-03-21T13:25:22.363Z,4.50
2023-03-21T13:28:02.414Z,4.50
2023-03-21T13:30:30.523Z,4.15
2023-03-21T13:33:21.343Z,4.60
2023-03-21T13:35:58.736Z,5.28
2023-03-21T13:38:28.268Z,4.80
2023-03-21T13:41:01.946Z,5.35
2023-03-21T13:43:35.794Z,4.30
2023-03-21T13:46:06.555Z,5.40
2023-03-21T13:48:59.201Z,4.72
2023-03-21T13:51:29.046Z,4.65
2023-03-21T13:54:02.296Z,5.35
2023-03-21T13:56:29.516Z,4.88
2023-03-21T13:59:03.053Z,5.57
2023-03-21T14:01:39.173Z,5.32
2023-03-21T14:04:32.202Z,5.75
2023-03-21T14:07:18.714Z,5.55
2023-03-21T14:09:49.085Z,4.75
2023-03-21T14:12:19.391Z,5.40
2023-03-21T14:15:15.806Z,4.90
2023-03-21T14:17:53.704Z,5.68
2023-03-21T14:20:34.772Z,5.75
2023-03-21T14:23:04.700Z,5.65
2023-03-21T14:25:46.713Z,4.65
2023-03-21T14:28:17.781Z,5.70
2023-03-21T14:30:45.283Z,5.05
2023-03-21T14:33:23.923Z,5.15
2023-03-21T14:35:50.427Z,5.80
2023-03-21T14:38:23.447Z,4.97
2023-03-21T14:40:53.095Z,4.88
2023-03-21T14:43:21.835Z,4.03
2023-03-21T14:45:51.862Z,5.10
2023-03-21T14:48:19.259Z,5.18
2023-03-21T14:50:49.416Z,5.05
2023-03-21T14:53:36.840Z,6.25
2023-03-21T14:56:09.567Z,5.53
2023-03-21T14:58:41.878Z,5.70
2023-03-21T15:01:16.032Z,5.05
2023-03-21T15:03:45.812Z,5.35
2023-03-21T15:06:14.156Z,5.70
2023-03-21T15:08:53.156Z,5.80
2023-03-21T15:11:30.216Z,5.65
2023-03-21T15:13:58.255Z,5.30
2023-03-21T15:16:24.838Z,5.50
2023-03-21T15:18:51.936Z,5.72
2023-03-21T15:21:23.794Z,6.45
2023-03-21T15:23:58.760Z,6.72
2023-03-21T15:26:26.340Z,6.28
2023-03-21T15:28:58.279Z,6.72
2023-03-21T15:31:29.666Z,6.95
2023-03-21T15:33:56.240Z,6.65
2023-03-21T15:36:27.220Z,6.22
2023-03-21T15:38:55.341Z,6.80
2023-03-21T15:41:21.665Z,6.63
2023-03-21T15:44:07.465Z,5.93
2023-03-21T15:46:41.698Z,5.95
2023-03-21T15:49:18.827Z,5.95
2023-03-21T15:51:59.509Z,6.40
2023-03-21T15:54:30.167Z,5.93
2023-03-21T15:56:59.224Z,5.50
2023-03-21T15:59:30.142Z,6.07
2023-03-21T16:01:56.768Z,5.78
2023-03-21T16:04:23.497Z,5.85
2023-03-21T16:06:57.960Z,5.70
2023-03-21T16:09:24.990Z,5.88
2023-03-21T16:11:57.023Z,6.32
2023-03-21T16:16:50.978Z,5.90
2023-03-21T16:19:17.766Z,5.68
2023-03-21T16:21:44.230Z,5.30
2023-03-21T16:24:11.666Z,6.03
2023-03-21T16:26:43.621Z,5.97
2023-03-21T16:29:12.124Z,5.50
2023-03-21T16:31:38.491Z,5.88
2023-03-21T16:34:04.988Z,5.43
2023-03-21T16:36:34.128Z,5.63
2023-03-21T16:39:00.548Z,6.80
2023-03-21T16:41:28.008Z,5.95
2023-03-21T16:43:54.477Z,6.63
2023-03-21T16:46:23.991Z,6.13
2023-03-21T16:48:54.378Z,5.93
2023-03-21T16:51:27.164Z,6.20
2023-03-21T16:53:53.783Z,6.57
2023-03-21T16:56:26.081Z,6.45
2023-03-21T16:58:57.002Z,5.90
2023-03-21T17:01:24.996Z,6.80
2023-03-21T17:03:51.780Z,6.75
2023-03-21T17:06:20.971Z,7.15
2023-03-21T17:08:48.135Z,7.35
2023-03-21T17:11:17.259Z,7.88
2023-03-21T17:13:44.173Z,8.63
2023-03-21T17:16:15.544Z,7.97
2023-03-21T17:18:42.086Z,8.05
2023-03-21T17:21:14.144Z,7.90
2023-03-21T17:23:40.780Z,7.85
2023-03-21T17:26:07.465Z,8.65
2023-03-21T17:28:33.845Z,9.18
2023-03-21T17:31:00.201Z,9.27
2023-03-21T17:33:26.642Z,9.07
2023-03-21T17:35:53.224Z,8.30
2023-03-21T17:38:19.651Z,9.55
2023-03-21T17:40:45.998Z,9.02
2023-03-21T17:43:19.120Z,8.95
2023-03-21T17:45:45.653Z,9.70
2023-03-21T17:48:12.354Z,10.25
2023-03-21T17:50:38.921Z,9.07
2023-03-21T17:53:07.128Z,9.52
2023-03-21T17:55:35.104Z,9.23
2023-03-21T17:58:01.506Z,8.50
2023-03-21T18:00:30.452Z,9.20
2023-03-21T18:02:57.014Z,9.80
2023-03-21T18:05:24.723Z,9.88
2023-03-21T18:08:09.712Z,9.57
2023-03-21T18:10:38.734Z,10.45
2023-03-21T18:13:05.288Z,10.00
2023-03-21T18:15:31.826Z,10.25
2023-03-21T18:17:58.961Z,10.35
2023-03-21T18:20:44.649Z,10.48
2023-03-21T18:23:12.914Z,9.00
2023-03-21T18:25:39.400Z,10.05
2023-03-21T18:28:11.611Z,10.55
2023-03-21T18:31:00.449Z,10.52
2023-03-21T18:33:24.910Z,9.50
2023-03-21T18:35:58.664Z,8.88
2023-03-21T18:38:26.333Z,8.98
2023-03-21T18:40:52.755Z,8.40
2023-03-21T18:46:06.463Z,8.70
2023-03-21T18:48:34.160Z,8.57
2023-03-21T18:51:00.825Z,9.05
2023-03-21T18:53:27.293Z,8.38
2023-03-21T18:55:54.055Z,9.52
2023-03-21T18:58:20.491Z,8.85
2023-03-21T19:00:47.256Z,8.25
2023-03-21T19:03:24.760Z,8.18
2023-03-21T19:06:00.676Z,8.20
2023-03-21T19:08:27.172Z,8.65
2023-03-21T19:10:53.871Z,8.32
2023-03-21T19:13:20.312Z,7.97
2023-03-21T19:15:49.591Z,8.32
2023-03-21T19:18:37.713Z,7.82
2023-03-21T19:21:02.913Z,6.72
2023-03-21T19:23:40.912Z,6.65
2023-03-21T19:26:15.886Z,7.93
2023-03-21T19:28:42.241Z,6.32
2023-03-21T19:31:08.665Z,5.72
2023-03-21T19:33:35.065Z,6.70
2023-03-21T19:36:15.160Z,6.45
2023-03-21T19:38:44.179Z,6.82
2023-03-21T19:41:10.609Z,6.88
2023-03-21T19:43:36.964Z,6.80
2023-03-21T19:46:03.798Z,5.88
2023-03-21T19:48:30.442Z,6.18
2023-03-21T19:53:43.264Z,5.53
2023-03-21T19:56:20.690Z,6.32
2023-03-21T19:58:49.400Z,5.85
2023-03-21T20:01:15.861Z,5.72
2023-03-21T20:03:43.530Z,5.88
2023-03-21T20:06:10.580Z,6.30
2023-03-21T20:09:05.457Z,6.18
2023-03-21T20:11:24.141Z,6.38
2023-03-21T20:13:50.467Z,6.18
2023-03-21T20:16:17.344Z,6.32
2023-03-21T20:18:44.716Z,6.60
2023-03-21T20:21:17.584Z,6.53
2023-03-21T20:23:44.853Z,6.13
2023-03-21T20:26:12.744Z,7.10
2023-03-21T20:28:39.703Z,6.63
2023-03-21T20:31:06.799Z,6.20
2023-03-21T20:33:33.844Z,6.15
2023-03-21T20:38:50.432Z,6.65
2023-03-21T20:41:16.880Z,6.68
2023-03-21T20:44:34.721Z,5.55
2023-03-21T20:46:29.882Z,6.35
2023-03-21T20:48:56.304Z,5.97
2023-03-21T20:54:09.411Z,6.55
2023-03-21T20:56:35.809Z,6.65
2023-03-21T20:59:15.693Z,6.22
2023-03-21T21:01:43.177Z,6.07
2023-03-21T21:04:09.778Z,5.97
2023-03-21T21:06:36.528Z,6.07
2023-03-21T21:09:02.951Z,5.25
2023-03-21T21:14:16.086Z,6.13
2023-03-21T21:16:42.700Z,5.60
2023-03-21T21:19:09.050Z,5.63
2023-03-21T21:21:35.369Z,5.43
2023-03-21T21:24:01.760Z,5.68
2023-03-21T21:26:28.200Z,5.07
2023-03-21T21:28:54.552Z,5.00
2023-03-21T21:31:21.015Z,4.80
2023-03-21T21:33:47.837Z,4.60
2023-03-21T21:36:14.437Z,3.92
2023-03-21T21:38:40.912Z,5.00
2023-03-21T21:41:09.258Z,3.75
2023-03-21T21:43:35.681Z,4.40
2023-03-21T21:46:02.147Z,4.75
2023-03-21T21:48:28.687Z,4.60
2023-03-21T21:50:55.053Z,5.10
2023-03-21T21:53:22.057Z,4.60
2023-03-21T21:55:49.069Z,5.13
2023-03-21T21:58:16.066Z,5.82
2023-03-21T22:00:42.560Z,5.30
2023-03-21T22:03:11.754Z,6.10
2023-03-21T22:05:38.099Z,6.40
2023-03-21T22:08:04.727Z,6.95
2023-03-21T22:10:32.257Z,7.85
2023-03-21T22:12:59.579Z,6.95
2023-03-21T22:15:26.157Z,6.40
2023-03-21T22:17:52.529Z,7.05
2023-03-21T22:20:20.508Z,6.88
2023-03-21T22:22:47.661Z,7.55
2023-03-21T22:25:16.111Z,7.10
2023-03-21T22:27:43.487Z,8.50
2023-03-21T22:30:14.060Z,7.80
2023-03-21T22:32:40.932Z,6.80
2023-03-21T22:35:07.872Z,6.35
2023-03-21T22:37:36.899Z,6.28
2023-03-21T22:40:04.002Z,5.78
2023-03-21T22:42:30.452Z,6.75
2023-03-21T22:44:56.863Z,6.80
2023-03-21T22:47:23.221Z,6.55
2023-03-21T22:49:49.665Z,6.40
2023-03-21T22:52:16.019Z,5.55
2023-03-21T22:54:42.339Z,5.65
2023-03-21T22:57:08.817Z,5.85
2023-03-21T22:59:35.243Z,5.55
2023-03-21T23:02:01.615Z,5.43
2023-03-21T23:04:28.231Z,6.05
2023-03-21T23:06:57.294Z,5.85
2023-03-21T23:09:24.274Z,6.15
2023-03-21T23:11:50.658Z,6.75
2023-03-21T23:14:17.896Z,6.90
2023-03-21T23:16:44.276Z,6.07
2023-03-21T23:19:11.556Z,6.53
2023-03-21T23:21:38.938Z,4.75
2023-03-21T23:24:07.311Z,6.00
2023-03-21T23:26:34.223Z,5.78
2023-03-21T23:29:00.756Z,5.00
2023-03-21T23:31:28.192Z,5.15
2023-03-21T23:33:55.073Z,5.00
2023-03-21T23:36:22.276Z,5.30
2023-03-21T23:38:48.642Z,4.30
2023-03-21T23:41:18.024Z,4.40
2023-03-21T23:43:45.258Z,5.18
2023-03-21T23:46:12.204Z,4.47
2023-03-21T23:48:39.162Z,4.03
2023-03-21T23:51:05.799Z,4.15
2023-03-21T23:53:32.264Z,4.50
2023-03-21T23:55:58.725Z,4.10
2023-03-21T23:58:27.373Z,4.22
